createdAt,value
2017-10-26T00:01:59.925Z,7.60
2017-10-26T00:04:26.009Z,8.80
2017-10-26T00:06:52.124Z,8.77
2017-10-26T00:09:18.245Z,7.80
2017-10-26T00:11:44.340Z,8.77
2017-10-26T00:14:10.421Z,8.60
2017-10-26T00:16:36.721Z,7.80
2017-10-26T00:19:03.636Z,7.10
2017-10-26T00:21:29.751Z,7.00
2017-10-26T00:23:55.821Z,6.70
2017-10-26T00:26:21.936Z,7.17
2017-10-26T00:28:48.101Z,5.90
2017-10-26T00:31:14.272Z,5.70
2017-10-26T00:33:41.125Z,5.87
2017-10-26T00:36:08.009Z,5.00
2017-10-26T00:38:34.179Z,4.73
2017-10-26T00:41:00.324Z,4.50
2017-10-26T00:43:26.544Z,4.70
2017-10-26T00:45:52.634Z,4.30
2017-10-26T00:48:18.975Z,5.23
2017-10-26T00:50:45.161Z,4.20
2017-10-26T00:53:11.264Z,5.70
2017-10-26T00:55:38.087Z,4.03
2017-10-26T00:58:04.204Z,3.80
2017-10-26T01:00:30.336Z,4.37
2017-10-26T01:02:56.462Z,3.63
2017-10-26T01:05:22.549Z,4.57
2017-10-26T01:07:49.398Z,3.83
2017-10-26T01:10:15.504Z,5.60
2017-10-26T01:12:41.601Z,4.30
2017-10-26T01:15:08.468Z,4.07
2017-10-26T01:17:34.570Z,3.63
2017-10-26T01:20:00.645Z,4.23
2017-10-26T01:22:26.744Z,5.43
2017-10-26T01:24:52.843Z,5.10
2017-10-26T01:27:18.912Z,4.40
2017-10-26T01:29:45.021Z,5.57
2017-10-26T01:32:11.105Z,5.50
2017-10-26T01:34:37.179Z,4.73
2017-10-26T01:37:03.252Z,4.63
2017-10-26T01:39:29.360Z,5.40
2017-10-26T01:41:55.436Z,4.60
2017-10-26T01:44:21.629Z,5.10
2017-10-26T01:46:47.703Z,5.57
2017-10-26T01:49:14.061Z,5.43
2017-10-26T01:51:40.237Z,6.17
2017-10-26T01:54:07.055Z,7.03
2017-10-26T01:56:33.294Z,6.43
2017-10-26T01:58:59.365Z,6.23
2017-10-26T02:01:26.264Z,7.57
2017-10-26T02:03:52.348Z,7.70
2017-10-26T02:06:19.168Z,8.37
2017-10-26T02:08:45.240Z,8.43
2017-10-26T02:11:12.185Z,8.87
2017-10-26T02:13:38.292Z,8.70
2017-10-26T02:16:04.376Z,8.70
2017-10-26T02:18:31.209Z,8.30
2017-10-26T02:20:57.305Z,7.87
2017-10-26T02:23:23.390Z,8.60
2017-10-26T02:25:49.496Z,7.90
2017-10-26T02:28:19.452Z,9.10
2017-10-26T02:30:57.973Z,9.13
2017-10-26T02:33:24.065Z,9.00
2017-10-26T02:35:50.203Z,9.13
2017-10-26T02:38:16.317Z,9.50
2017-10-26T02:40:42.389Z,9.10
2017-10-26T02:43:08.518Z,9.30
2017-10-26T02:45:34.634Z,10.33
2017-10-26T02:48:00.709Z,9.90
2017-10-26T02:50:26.834Z,9.30
2017-10-26T02:52:52.957Z,10.00
2017-10-26T02:55:19.049Z,9.43
2017-10-26T02:57:45.207Z,9.73
2017-10-26T03:00:12.046Z,8.97
2017-10-26T03:02:38.190Z,9.70
2017-10-26T03:05:04.421Z,9.77
2017-10-26T03:07:30.581Z,7.97
2017-10-26T03:09:57.465Z,9.70
2017-10-26T03:12:23.536Z,9.20
2017-10-26T03:14:49.628Z,9.20
2017-10-26T03:17:15.702Z,9.23
2017-10-26T03:19:41.786Z,8.10
2017-10-26T03:22:08.684Z,7.80
2017-10-26T03:24:34.761Z,8.17
2017-10-26T03:27:00.889Z,7.73
2017-10-26T03:29:27.016Z,7.10
2017-10-26T03:31:53.092Z,7.10
2017-10-26T03:34:19.904Z,7.50
2017-10-26T03:36:46.005Z,7.47
2017-10-26T03:39:12.069Z,7.00
2017-10-26T03:41:38.133Z,7.00
2017-10-26T03:44:04.281Z,6.70
2017-10-26T03:46:30.372Z,6.13
2017-10-26T03:48:56.441Z,7.50
2017-10-26T03:51:22.533Z,7.30
2017-10-26T03:53:48.656Z,6.90
2017-10-26T03:56:15.465Z,7.07
2017-10-26T03:58:41.641Z,8.10
2017-10-26T04:01:08.444Z,7.83
2017-10-26T04:03:34.500Z,8.03
2017-10-26T04:06:00.597Z,7.70
2017-10-26T04:08:26.673Z,7.37
2017-10-26T04:10:52.748Z,7.80
2017-10-26T04:13:18.898Z,9.37
2017-10-26T04:15:44.968Z,8.80
2017-10-26T04:18:11.032Z,8.13
2017-10-26T04:20:37.131Z,9.00
2017-10-26T04:23:03.261Z,8.53
2017-10-26T04:25:29.328Z,9.23
2017-10-26T04:27:55.476Z,8.57
2017-10-26T04:30:21.548Z,9.20
2017-10-26T04:32:48.383Z,9.83
2017-10-26T04:35:15.237Z,9.00
2017-10-26T04:37:41.328Z,9.67
2017-10-26T04:40:07.411Z,9.60
2017-10-26T04:42:33.510Z,9.77
2017-10-26T04:44:59.609Z,10.30
2017-10-26T04:47:25.677Z,10.97
2017-10-26T04:49:51.759Z,10.33
2017-10-26T04:52:17.828Z,10.80
2017-10-26T04:54:43.913Z,10.73
2017-10-26T04:57:10.011Z,11.70
2017-10-26T04:59:36.089Z,10.27
2017-10-26T05:02:02.164Z,11.57
2017-10-26T05:04:28.258Z,12.10
2017-10-26T05:06:54.318Z,11.23
2017-10-26T05:09:21.140Z,12.20
2017-10-26T05:11:47.232Z,12.47
2017-10-26T05:14:13.345Z,11.07
2017-10-26T05:16:39.413Z,11.70
2017-10-26T05:19:05.560Z,11.43
2017-10-26T05:21:31.635Z,11.93
2017-10-26T05:23:57.709Z,11.87
2017-10-26T05:26:24.604Z,12.40
2017-10-26T05:28:50.677Z,12.67
2017-10-26T05:31:16.759Z,12.37
2017-10-26T05:33:42.931Z,11.73
2017-10-26T05:36:09.108Z,12.10
2017-10-26T05:38:35.976Z,12.23
2017-10-26T05:41:02.869Z,13.20
2017-10-26T05:43:28.948Z,16.00
2017-10-26T05:45:55.088Z,12.27
2017-10-26T05:48:21.200Z,14.57
2017-10-26T05:50:47.271Z,12.60
2017-10-26T05:53:13.492Z,14.30
2017-10-26T05:55:39.621Z,18.60
2017-10-26T05:58:05.701Z,13.40
2017-10-26T06:00:32.537Z,12.10
2017-10-26T06:02:59.392Z,15.57
2017-10-26T06:05:25.489Z,12.90
2017-10-26T06:07:51.552Z,12.90
2017-10-26T06:10:17.652Z,12.57
2017-10-26T06:12:43.714Z,15.30
2017-10-26T06:15:09.789Z,15.20
2017-10-26T06:17:36.635Z,13.03
2017-10-26T06:20:03.450Z,13.70
2017-10-26T06:22:29.517Z,13.40
2017-10-26T06:24:55.643Z,12.53
2017-10-26T06:27:21.720Z,13.93
2017-10-26T06:29:47.792Z,21.67
2017-10-26T06:32:14.044Z,13.10
2017-10-26T06:34:40.104Z,13.70
2017-10-26T06:37:06.208Z,13.27
2017-10-26T06:39:32.338Z,14.10
2017-10-26T06:41:58.412Z,12.40
2017-10-26T06:44:24.490Z,12.20
2017-10-26T06:46:50.656Z,11.03
2017-10-26T06:49:16.741Z,13.83
2017-10-26T06:51:43.568Z,12.40
2017-10-26T06:54:09.665Z,16.10
2017-10-26T06:56:35.770Z,10.87
2017-10-26T06:59:02.929Z,10.20
2017-10-26T07:01:29.024Z,11.80
2017-10-26T07:03:55.108Z,11.17
2017-10-26T07:06:21.936Z,11.20
2017-10-26T07:08:48.036Z,12.20
2017-10-26T07:11:14.136Z,9.40
2017-10-26T07:13:40.955Z,8.80
2017-10-26T07:16:07.035Z,10.77
2017-10-26T07:18:33.868Z,9.87
2017-10-26T07:20:59.972Z,8.40
2017-10-26T07:23:26.076Z,8.23
2017-10-26T07:25:52.164Z,10.60
2017-10-26T07:28:18.261Z,7.43
2017-10-26T07:30:44.448Z,10.60
2017-10-26T07:33:10.547Z,8.90
2017-10-26T07:35:36.688Z,8.97
2017-10-26T07:38:03.056Z,7.77
2017-10-26T07:40:29.122Z,8.13
2017-10-26T07:42:55.188Z,10.07
2017-10-26T07:45:21.284Z,7.50
2017-10-26T07:47:47.425Z,7.53
2017-10-26T07:50:13.600Z,7.37
2017-10-26T07:52:39.729Z,7.13
2017-10-26T07:55:06.560Z,8.57
2017-10-26T07:57:32.694Z,7.70
2017-10-26T07:59:58.781Z,8.17
2017-10-26T08:02:24.904Z,8.33
2017-10-26T08:04:51.718Z,7.37
2017-10-26T08:07:18.319Z,7.27
2017-10-26T08:09:44.480Z,9.20
2017-10-26T08:12:10.617Z,7.33
2017-10-26T08:14:36.752Z,7.30
2017-10-26T08:17:03.023Z,7.90
2017-10-26T08:19:29.096Z,7.07
2017-10-26T08:21:55.927Z,6.80
2017-10-26T08:24:22.129Z,6.70
2017-10-26T08:26:48.312Z,6.87
2017-10-26T08:29:14.452Z,6.73
2017-10-26T08:31:40.534Z,8.33
2017-10-26T08:34:06.604Z,7.87
2017-10-26T08:36:32.990Z,5.90
2017-10-26T08:38:59.157Z,8.33
2017-10-26T08:41:25.285Z,6.47
2017-10-26T08:43:51.371Z,6.77
2017-10-26T08:46:17.458Z,7.97
2017-10-26T08:48:43.601Z,6.10
2017-10-26T08:51:09.722Z,7.07
2017-10-26T08:53:36.546Z,8.80
2017-10-26T08:56:03.056Z,8.50
2017-10-26T08:58:44.082Z,5.83
2017-10-26T09:01:10.176Z,5.90
2017-10-26T09:03:36.382Z,7.67
2017-10-26T09:06:03.357Z,6.80
2017-10-26T09:08:29.712Z,7.80
2017-10-26T09:10:55.907Z,6.00
2017-10-26T09:13:23.048Z,7.23
2017-10-26T09:15:49.182Z,6.00
2017-10-26T09:18:15.342Z,5.67
2017-10-26T09:20:41.701Z,5.23
2017-10-26T09:23:08.729Z,6.63
2017-10-26T09:25:34.901Z,6.50
2017-10-26T09:28:01.757Z,5.13
2017-10-26T09:30:28.717Z,5.67
2017-10-26T09:33:01.917Z,5.40
2017-10-26T09:35:28.291Z,6.50
2017-10-26T09:37:54.453Z,6.50
2017-10-26T09:40:20.609Z,6.50
2017-10-26T09:42:46.841Z,7.00
2017-10-26T09:45:12.957Z,5.10
2017-10-26T09:47:39.060Z,11.40
2017-10-26T09:50:06.085Z,5.90
2017-10-26T09:52:32.218Z,6.80
2017-10-26T09:54:58.336Z,6.50
2017-10-26T09:57:26.661Z,6.97
2017-10-26T09:59:52.783Z,6.10
2017-10-26T10:02:18.919Z,7.00
2017-10-26T10:04:45.021Z,6.60
2017-10-26T10:07:11.128Z,8.07
2017-10-26T10:09:37.990Z,7.63
2017-10-26T10:12:04.121Z,7.77
2017-10-26T10:14:30.957Z,8.50
2017-10-26T10:16:57.073Z,9.37
2017-10-26T10:19:23.230Z,10.70
2017-10-26T10:21:49.438Z,11.43
2017-10-26T10:24:15.671Z,13.20
2017-10-26T10:26:41.833Z,10.27
2017-10-26T10:29:08.123Z,11.50
2017-10-26T10:31:34.328Z,11.57
2017-10-26T10:34:00.423Z,12.40
2017-10-26T10:36:26.581Z,18.30
2017-10-26T10:38:52.739Z,9.30
2017-10-26T10:41:18.937Z,12.70
2017-10-26T10:43:45.072Z,13.10
2017-10-26T10:46:11.243Z,24.33
2017-10-26T10:48:37.404Z,15.63
2017-10-26T10:51:03.639Z,10.77
2017-10-26T10:53:29.771Z,10.03
2017-10-26T10:55:55.881Z,9.40
2017-10-26T10:58:21.977Z,10.70
2017-10-26T11:00:48.805Z,9.10
2017-10-26T11:03:14.923Z,10.90
2017-10-26T11:05:41.873Z,11.40
2017-10-26T11:08:07.998Z,12.20
2017-10-26T11:10:34.079Z,12.53
2017-10-26T11:13:00.322Z,11.50
2017-10-26T11:15:26.604Z,9.93
2017-10-26T11:17:52.748Z,14.17
2017-10-26T11:20:18.874Z,10.57
2017-10-26T11:22:45.719Z,9.00
2017-10-26T11:25:12.528Z,10.63
2017-10-26T11:27:38.652Z,10.07
2017-10-26T11:30:04.736Z,8.57
2017-10-26T11:32:30.830Z,9.30
2017-10-26T11:34:56.924Z,10.20
2017-10-26T11:37:23.760Z,13.10
2017-10-26T11:39:50.576Z,12.60
2017-10-26T11:42:16.699Z,10.23
2017-10-26T11:44:42.772Z,8.50
2017-10-26T11:47:08.853Z,8.57
2017-10-26T11:49:35.697Z,10.30
2017-10-26T11:52:02.512Z,8.77
2017-10-26T11:54:28.601Z,8.70
2017-10-26T11:56:54.680Z,8.50
2017-10-26T11:59:20.825Z,7.80
2017-10-26T12:01:46.904Z,9.57
2017-10-26T12:04:13.013Z,7.50
2017-10-26T12:06:39.085Z,8.20
2017-10-26T12:09:05.187Z,8.77
2017-10-26T12:11:31.280Z,7.43
2017-10-26T12:13:57.484Z,9.03
2017-10-26T12:16:23.572Z,9.87
2017-10-26T12:18:49.661Z,14.00
2017-10-26T12:21:16.508Z,12.20
2017-10-26T12:23:42.623Z,13.80
2017-10-26T12:26:08.727Z,8.40
2017-10-26T12:28:34.852Z,11.10
2017-10-26T12:31:00.952Z,11.10
2017-10-26T12:33:27.052Z,10.80
2017-10-26T12:35:53.157Z,10.23
2017-10-26T12:38:19.996Z,10.50
2017-10-26T12:40:46.855Z,10.30
2017-10-26T12:43:13.732Z,10.80
2017-10-26T12:45:39.924Z,10.13
2017-10-26T12:48:06.034Z,12.37
2017-10-26T12:50:32.188Z,11.80
2017-10-26T12:52:58.341Z,11.60
2017-10-26T12:55:24.529Z,10.90
2017-10-26T12:57:50.711Z,12.03
2017-10-26T13:00:16.898Z,14.47
2017-10-26T13:02:43.885Z,12.20
2017-10-26T13:05:10.078Z,13.23
2017-10-26T13:07:36.908Z,12.47
2017-10-26T13:10:03.020Z,12.30
2017-10-26T13:12:29.149Z,17.10
2017-10-26T13:14:55.281Z,15.03
2017-10-26T13:17:21.352Z,16.23
2017-10-26T13:19:47.509Z,19.03
2017-10-26T13:22:13.587Z,14.30
2017-10-26T13:24:39.686Z,15.20
2017-10-26T13:27:05.792Z,21.73
2017-10-26T13:29:31.924Z,15.37
2017-10-26T13:31:58.001Z,14.97
2017-10-26T13:34:24.120Z,16.17
2017-10-26T13:36:50.933Z,14.80
2017-10-26T13:39:17.165Z,17.93
2017-10-26T13:41:43.330Z,13.17
2017-10-26T13:44:09.516Z,14.93
2017-10-26T13:46:35.576Z,14.13
2017-10-26T13:49:02.433Z,15.43
2017-10-26T13:51:28.523Z,14.07
2017-10-26T13:53:54.629Z,13.07
2017-10-26T13:56:22.385Z,15.00
2017-10-26T13:58:48.464Z,16.77
2017-10-26T14:01:14.534Z,14.60
2017-10-26T14:03:40.624Z,14.83
2017-10-26T14:06:06.732Z,16.30
2017-10-26T14:08:32.860Z,12.63
2017-10-26T14:10:58.964Z,14.07
2017-10-26T14:13:25.077Z,13.23
2017-10-26T14:15:51.155Z,14.20
2017-10-26T14:18:17.257Z,14.13
2017-10-26T14:20:43.324Z,14.20
2017-10-26T14:23:09.440Z,13.80
2017-10-26T14:25:35.551Z,14.07
2017-10-26T14:28:01.640Z,13.60
2017-10-26T14:30:27.896Z,14.43
2017-10-26T14:32:54.736Z,14.80
2017-10-26T14:35:20.829Z,16.10
2017-10-26T14:37:46.908Z,14.40
2017-10-26T14:40:13.021Z,15.33
2017-10-26T14:42:39.122Z,15.30
2017-10-26T14:45:05.245Z,15.37
2017-10-26T14:47:31.351Z,15.70
2017-10-26T14:49:57.411Z,15.03
2017-10-26T14:52:24.223Z,14.17
2017-10-26T14:54:50.324Z,16.40
2017-10-26T14:57:16.448Z,15.43
2017-10-26T14:59:42.538Z,17.00
2017-10-26T15:02:08.625Z,16.23
2017-10-26T15:04:34.760Z,15.87
2017-10-26T15:07:01.607Z,15.93
2017-10-26T15:09:28.469Z,20.30
2017-10-26T15:11:55.269Z,15.67
2017-10-26T15:14:21.376Z,16.93
2017-10-26T15:16:47.497Z,16.90
2017-10-26T15:19:14.318Z,17.50
2017-10-26T15:21:40.422Z,17.13
2017-10-26T15:24:06.530Z,16.47
2017-10-26T15:26:33.334Z,18.23
2017-10-26T15:28:59.444Z,16.70
2017-10-26T15:31:25.541Z,19.40
2017-10-26T15:33:51.637Z,18.30
2017-10-26T15:36:17.715Z,17.30
2017-10-26T15:38:43.832Z,16.67
2017-10-26T15:41:10.216Z,17.40
2017-10-26T15:43:37.071Z,17.30
2017-10-26T15:48:36.206Z,19.60
2017-10-26T15:51:02.458Z,18.07
2017-10-26T15:53:28.645Z,17.77
2017-10-26T15:55:54.733Z,17.60
2017-10-26T15:58:20.890Z,18.97
2017-10-26T16:00:47.001Z,18.20
2017-10-26T16:03:13.893Z,18.10
2017-10-26T16:05:40.052Z,17.27
2017-10-26T16:08:06.216Z,18.50
2017-10-26T16:10:32.302Z,25.47
2017-10-26T16:12:58.390Z,31.80
2017-10-26T16:15:24.488Z,48.70
2017-10-26T16:17:50.591Z,81.10
2017-10-26T16:20:16.721Z,91.13
2017-10-26T16:22:43.584Z,66.77
2017-10-26T16:25:09.672Z,62.37
2017-10-26T16:27:35.799Z,105.73
2017-10-26T16:30:01.897Z,120.53
2017-10-26T16:32:27.988Z,83.30
2017-10-26T16:34:54.203Z,50.57
2017-10-26T16:37:20.281Z,37.37
2017-10-26T16:39:46.429Z,89.37
2017-10-26T16:42:13.252Z,43.07
2017-10-26T16:44:39.360Z,41.73
2017-10-26T16:47:05.499Z,44.03
2017-10-26T16:49:31.608Z,40.63
2017-10-26T16:51:58.409Z,34.30
2017-10-26T16:54:24.556Z,50.57
2017-10-26T16:56:50.641Z,34.80
2017-10-26T16:59:16.756Z,30.67
2017-10-26T17:01:43.009Z,40.63
2017-10-26T17:04:09.925Z,27.63
2017-10-26T17:06:36.034Z,22.23
2017-10-26T17:09:02.172Z,25.07
2017-10-26T17:11:28.254Z,24.10
2017-10-26T17:13:54.434Z,20.60
2017-10-26T17:16:20.620Z,20.60
2017-10-26T17:18:46.724Z,18.30
2017-10-26T17:21:12.800Z,27.53
2017-10-26T17:23:38.935Z,25.53
2017-10-26T17:26:05.061Z,26.40
2017-10-26T17:28:31.147Z,18.30
2017-10-26T17:30:57.992Z,17.53
2017-10-26T17:33:24.156Z,19.27
2017-10-26T17:35:50.229Z,17.50
2017-10-26T17:38:16.351Z,17.37
2017-10-26T17:40:42.484Z,16.73
2017-10-26T17:43:08.617Z,16.97
2017-10-26T17:45:34.736Z,16.73
2017-10-26T17:48:00.849Z,16.67
2017-10-26T17:50:26.999Z,18.07
2017-10-26T17:52:53.170Z,18.60
2017-10-26T17:55:19.297Z,16.60
2017-10-26T17:57:46.439Z,15.27
2017-10-26T18:00:12.554Z,18.47
2017-10-26T18:02:38.664Z,15.60
2017-10-26T18:05:04.748Z,17.53
2017-10-26T18:07:31.737Z,16.83
2017-10-26T18:09:57.820Z,17.10
2017-10-26T18:12:23.889Z,17.70
2017-10-26T18:14:51.976Z,17.67
2017-10-26T18:17:19.749Z,17.30
2017-10-26T18:19:46.819Z,22.27
2017-10-26T18:22:14.031Z,19.07
2017-10-26T18:24:40.432Z,21.80
2017-10-26T18:27:06.573Z,23.80
2017-10-26T18:29:32.738Z,20.20
2017-10-26T18:31:58.812Z,20.50
2017-10-26T18:34:24.917Z,20.43
2017-10-26T18:36:51.003Z,18.73
2017-10-26T18:39:17.076Z,19.37
2017-10-26T18:41:43.216Z,20.93
2017-10-26T18:44:09.596Z,18.53
2017-10-26T18:46:36.577Z,18.90
2017-10-26T18:49:03.454Z,22.10
2017-10-26T18:51:29.532Z,26.83
2017-10-26T18:53:55.637Z,20.73
2017-10-26T18:56:21.741Z,18.30
2017-10-26T18:58:47.820Z,17.27
2017-10-26T19:01:13.909Z,18.07
2017-10-26T19:03:40.004Z,19.07
2017-10-26T19:06:06.101Z,17.67
2017-10-26T19:08:32.959Z,24.20
2017-10-26T19:10:59.802Z,18.90
2017-10-26T19:13:25.901Z,26.07
2017-10-26T19:15:52.068Z,19.27
2017-10-26T19:18:18.170Z,21.17
2017-10-26T19:20:44.256Z,19.10
2017-10-26T19:23:10.332Z,17.60
2017-10-26T19:25:36.452Z,19.90
2017-10-26T19:28:02.563Z,27.03
2017-10-26T19:30:28.652Z,27.07
2017-10-26T19:32:54.744Z,31.67
2017-10-26T19:35:21.553Z,22.00
2017-10-26T19:37:47.632Z,42.40
2017-10-26T19:40:14.233Z,31.77
2017-10-26T19:42:40.378Z,28.93
2017-10-26T19:45:06.507Z,31.07
2017-10-26T19:47:32.605Z,39.93
2017-10-26T19:49:59.444Z,38.70
2017-10-26T19:52:25.521Z,25.07
2017-10-26T19:54:51.636Z,26.63
2017-10-26T19:57:18.449Z,43.20
2017-10-26T19:59:44.524Z,32.90
2017-10-26T20:02:11.407Z,57.57
2017-10-26T20:04:37.600Z,49.97
2017-10-26T20:07:03.772Z,29.13
2017-10-26T20:09:29.990Z,60.27
2017-10-26T20:11:56.130Z,83.33
2017-10-26T20:14:22.972Z,51.40
2017-10-26T20:16:49.080Z,68.73
2017-10-26T20:19:15.151Z,36.27
2017-10-26T20:21:41.276Z,58.27
2017-10-26T20:24:07.369Z,38.27
2017-10-26T20:26:33.468Z,45.30
2017-10-26T20:28:59.549Z,66.47
2017-10-26T20:31:25.673Z,40.20
2017-10-26T20:33:51.752Z,36.53
2017-10-26T20:36:17.865Z,33.90
2017-10-26T20:38:43.980Z,28.70
2017-10-26T20:41:10.818Z,30.63
2017-10-26T20:43:37.002Z,26.57
2017-10-26T20:46:03.108Z,27.77
2017-10-26T20:48:29.177Z,31.00
2017-10-26T20:51:01.388Z,26.37
2017-10-26T20:53:33.659Z,24.70
2017-10-26T20:56:05.774Z,22.80
2017-10-26T20:58:38.781Z,21.80
2017-10-26T21:01:12.033Z,22.20
2017-10-26T21:03:44.362Z,24.60
2017-10-26T21:06:15.589Z,19.00
2017-10-26T21:08:47.888Z,20.83
2017-10-26T21:11:20.045Z,18.87
2017-10-26T21:13:52.275Z,19.37
2017-10-26T21:16:19.117Z,18.13
2017-10-26T21:18:45.200Z,20.77
2017-10-26T21:21:11.273Z,18.87
2017-10-26T21:23:37.356Z,18.83
2017-10-26T21:26:04.208Z,17.00
2017-10-26T21:28:30.276Z,18.77
2017-10-26T21:30:56.354Z,29.80
2017-10-26T21:33:22.633Z,17.80
2017-10-26T21:35:48.720Z,19.90
2017-10-26T21:38:14.797Z,20.77
2017-10-26T21:40:40.952Z,18.57
2017-10-26T21:43:07.163Z,16.30
2017-10-26T21:45:33.264Z,16.77
2017-10-26T21:47:59.365Z,20.27
2017-10-26T21:50:25.447Z,22.73
2017-10-26T21:52:51.512Z,23.63
2017-10-26T21:55:18.348Z,17.20
2017-10-26T21:57:44.434Z,14.77
2017-10-26T22:00:10.500Z,15.40
2017-10-26T22:02:36.692Z,16.27
2017-10-26T22:05:03.586Z,14.80
2017-10-26T22:07:29.653Z,18.13
2017-10-26T22:09:55.748Z,14.43
2017-10-26T22:12:22.233Z,19.60
2017-10-26T22:14:48.345Z,15.93
2017-10-26T22:17:14.440Z,15.17
2017-10-26T22:19:41.269Z,15.13
2017-10-26T22:22:07.346Z,16.43
2017-10-26T22:24:33.467Z,17.03
2017-10-26T22:27:00.361Z,15.93
2017-10-26T22:29:26.452Z,15.37
2017-10-26T22:31:52.533Z,15.50
2017-10-26T22:34:18.627Z,14.27
2017-10-26T22:36:45.440Z,14.60
2017-10-26T22:39:11.524Z,14.80
2017-10-26T22:41:38.409Z,13.77
2017-10-26T22:44:04.508Z,14.47
2017-10-26T22:46:30.604Z,16.00
2017-10-26T22:48:56.684Z,14.50
2017-10-26T22:51:23.577Z,15.73
2017-10-26T22:53:49.677Z,14.50
2017-10-26T22:56:15.756Z,16.77
2017-10-26T22:58:41.828Z,15.33
2017-10-26T23:01:07.961Z,15.80
2017-10-26T23:03:34.168Z,16.00
2017-10-26T23:06:00.250Z,17.20
2017-10-26T23:08:26.345Z,15.70
2017-10-26T23:10:52.409Z,15.93
2017-10-26T23:13:18.489Z,16.30
2017-10-26T23:15:44.611Z,16.60
2017-10-26T23:18:10.713Z,17.40
2017-10-26T23:20:37.248Z,17.80
2017-10-26T23:23:03.634Z,17.03
2017-10-26T23:25:29.717Z,17.27
2017-10-26T23:27:55.788Z,16.13
2017-10-26T23:30:21.877Z,16.30
2017-10-26T23:32:48.727Z,18.27
2017-10-26T23:35:15.656Z,17.53
2017-10-26T23:37:41.761Z,16.93
2017-10-26T23:40:08.102Z,19.13
2017-10-26T23:42:34.426Z,16.20
2017-10-26T23:45:00.638Z,17.67
2017-10-26T23:47:27.532Z,19.27
2017-10-26T23:49:53.609Z,18.60
2017-10-26T23:52:19.705Z,17.73
2017-10-26T23:54:45.805Z,18.20
2017-10-26T23:57:12.658Z,17.63
2017-10-26T23:59:38.785Z,16.53
